ZYTX/SHE METAR and TAF weather

Enter ICAO airport designator
Station Type Date Time Source
ZYTX METAR 2022/01/26 08:30 UTC NOAA

ZYTX 260830Z 29003MPS CAVOK M05/M17 Q1029 NOSIG


Station Type Date Time Source
ZYTX Decoded METAR 2022/01/26 08:30 UTC NOAA

Shenyang / Taokian, China (ZYTX) 41-48N 123-24E
Jan 26, 2022 - 03:30 AM EST / 2022.01.26 0830 UTC
Wind: from the WNW (290 degrees) at 7 MPH (6 KT):0
Visibility: greater than 7 mile(s):0
Temperature: 23 F (-5 C)
Windchill: 14 F (-10 C):1
Dew Point: 1 F (-17 C)
Relative Humidity: 38%
Pressure (altimeter): 30.39 in. Hg (1029 hPa)
ob: ZYTX 260830Z 29003MPS CAVOK M05/M17 Q1029 NOSIG
cycle: 8

Station Type Date Time Source
ZYTX TAF 2022/01/26 06:03 UTC NOAA

TAF ZYTX 260301Z 2606/2706 32004MPS 6000 NSC TXM04/2606Z TNM17/2623Z

Example: see airport list